Blaca HR Speed Test Log

Averages  Max Speed    
1 to 25 of 220** for City Blaca HR
Time
  
  Speed   Provider Size    User ConnectID   TestID  
4/11/17 12:30:41 pm 6.68 Mbps 835 kB/sH1 Telekom 6.3 MB81774934569 A6sLp71Bn 
4/10/17 1:52:33 pm 6.32 Mbps 790 kB/sH1 Telekom 6.2 MB81774934569 4kJ5uBoHz 
4/9/17 5:42:44 pm 5.44 Mbps 681 kB/sH1 Telekom 6.3 MB81774934569 TzLtAkOFe 
4/9/17 5:41:37 pm 99 kbps 12 kB/sH1 Telekom 256 kB81774934569 wb8ZjJeXx 
3/30/17 6:59:00 am 1.87 Mbps 234 kB/sH1 Telekom 2 MB81774925765 UtzScrHhL 
3/30/17 6:57:42 am 20.29 Mbps 2.54 MB/sH1 Telekom 42.9 MB81774925765 iesQFk6JX 
3/25/17 11:37:39 am 4.35 Mbps 544 kB/sH1 Telekom 6.2 MB81774929892 rSDEoh4kZ 
2/4/17 1:37:53 pm 10.27 Mbps 1.28 MB/sH1 Telekom 6.3 MB8177495994 ugkpUYT5D 
12/25/16 7:43:08 am 9.25 Mbps 1.16 MB/sHrvatski 6.1 MBMarijo854169872354 eSKWBZl52 
12/25/16 7:42:58 am 37.23 Mbps 4.65 MB/sHrvatski 60.5 MBMarijo854169872354 Ikm9dlZE0 
12/25/16 7:33:08 am 7.94 Mbps 992 kB/sHrvatski 6.2 MBMarijo854169872354 eUSrhKZu4 
12/25/16 7:32:56 am 35.86 Mbps 4.48 MB/sHrvatski 62.6 MBMarijo854169872354 GMUO1vZEu 
12/25/16 7:23:05 am 7.79 Mbps 974 kB/sHrvatski 6.3 MBMarijo854169872354 cbUiSN1GM 
12/25/16 7:22:53 am 38.39 Mbps 4.8 MB/sHrvatski 63.3 MBMarijo854169872354 Wk1MvKuaC 
12/25/16 7:12:47 am 7.51 Mbps 939 kB/sHrvatski 6.2 MBMarijo854169872354 xXNpMVKQ3 
12/25/16 7:12:35 am 38.97 Mbps 4.87 MB/sHrvatski 60.1 MBMarijo854169872354 XtxSfyKq7 
12/25/16 7:02:31 am 7.92 Mbps 990 kB/sHrvatski 6.1 MBMarijo854169872354 z9yBH1lhK 
12/25/16 7:02:18 am 36.37 Mbps 4.55 MB/sHrvatski 62.6 MBMarijo854169872354 YkQt6coME 
12/25/16 6:52:29 am 8.03 Mbps 1 MB/sHrvatski 6.3 MBMarijo854169872354 Juhm6rP8T 
12/25/16 6:52:16 am 37.37 Mbps 4.67 MB/sHrvatski 60.5 MBMarijo854169872354 Haohn4G2f 
12/25/16 6:42:10 am 8.21 Mbps 1.03 MB/sHrvatski 6.4 MBMarijo854169872354 GFqaKY81V 
12/25/16 6:41:58 am 34.9 Mbps 4.36 MB/sHrvatski 62.6 MBMarijo854169872354 MjQW2kYs9 
12/25/16 6:31:52 am 6.97 Mbps 871 kB/sHrvatski 6.3 MBMarijo854169872354 mT7Gpvtwl 
12/25/16 6:31:39 am 37.34 Mbps 4.67 MB/sHrvatski 60 MBMarijo854169872354 xydwVQMef 
12/25/16 6:21:32 am 7.9 Mbps 987 kB/sHrvatski 6.3 MBMarijo854169872354 OrlYA2MKJ 
  
** Partial Results: The most recent results have been displayed. Results over 50 Mbps are highlighted.
Graphed results calculation
Displaying Internet Speed Test results for City Blaca HR

Minimum

Min 0.1 Mbps : 1.87 Mbps

Average [show Median]

Average 23.33 Mbps : 7.34 Mbps

Maximum

Max 38.97 Mbps : 9.25 Mbps

Minimum

Minimum: 0.1 Mbps : 1.87 Mbps

Average

Average: 23.33 Mbps : 7.34 Mbps [show Median]

Maximum

Maximum: 38.97 Mbps : 9.25 Mbps